sensor_id;sensor_type;location;lat;lon;timestamp;P1;durP1;ratioP1;P2;durP2;ratioP2
68921;SDS011;55959;51.244;5.724;2023-03-03T00:00:46;24.73;;;18.30;;
68921;SDS011;55959;51.244;5.724;2023-03-03T00:03:13;25.43;;;18.20;;
68921;SDS011;55959;51.244;5.724;2023-03-03T00:05:44;26.83;;;18.20;;
68921;SDS011;55959;51.244;5.724;2023-03-03T00:08:09;28.87;;;20.00;;
68921;SDS011;55959;51.244;5.724;2023-03-03T00:10:36;26.60;;;18.77;;
68921;SDS011;55959;51.244;5.724;2023-03-03T00:13:02;26.00;;;19.50;;
68921;SDS011;55959;51.244;5.724;2023-03-03T00:15:35;32.00;;;20.90;;
68921;SDS011;55959;51.244;5.724;2023-03-03T00:18:01;26.30;;;18.97;;
68921;SDS011;55959;51.244;5.724;2023-03-03T00:20:58;24.67;;;17.90;;
68921;SDS011;55959;51.244;5.724;2023-03-03T00:23:30;29.37;;;19.93;;
68921;SDS011;55959;51.244;5.724;2023-03-03T00:26:00;26.10;;;17.43;;
68921;SDS011;55959;51.244;5.724;2023-03-03T00:28:31;28.30;;;19.40;;
68921;SDS011;55959;51.244;5.724;2023-03-03T00:31:35;28.57;;;18.83;;
68921;SDS011;55959;51.244;5.724;2023-03-03T00:36:43;27.53;;;18.83;;
68921;SDS011;55959;51.244;5.724;2023-03-03T00:41:47;32.37;;;21.90;;
68921;SDS011;55959;51.244;5.724;2023-03-03T00:44:55;36.93;;;24.63;;
68921;SDS011;55959;51.244;5.724;2023-03-03T00:49:59;32.93;;;21.73;;
68921;SDS011;55959;51.244;5.724;2023-03-03T00:55:35;34.27;;;22.53;;
68921;SDS011;55959;51.244;5.724;2023-03-03T00:58:02;34.53;;;23.73;;
68921;SDS011;55959;51.244;5.724;2023-03-03T01:00:28;32.93;;;22.10;;
68921;SDS011;55959;51.244;5.724;2023-03-03T01:02:54;40.07;;;26.13;;
68921;SDS011;55959;51.244;5.724;2023-03-03T01:05:20;38.80;;;24.23;;
68921;SDS011;55959;51.244;5.724;2023-03-03T01:07:46;33.90;;;22.50;;
68921;SDS011;55959;51.244;5.724;2023-03-03T01:10:12;37.20;;;24.77;;
68921;SDS011;55959;51.244;5.724;2023-03-03T01:12:37;35.67;;;23.30;;
68921;SDS011;55959;51.244;5.724;2023-03-03T01:15:05;35.67;;;22.97;;
68921;SDS011;55959;51.244;5.724;2023-03-03T01:17:32;37.70;;;23.83;;
68921;SDS011;55959;51.244;5.724;2023-03-03T01:19:59;42.87;;;26.40;;
68921;SDS011;55959;51.244;5.724;2023-03-03T01:22:25;43.57;;;27.03;;
68921;SDS011;55959;51.244;5.724;2023-03-03T01:24:51;41.23;;;25.73;;
68921;SDS011;55959;51.244;5.724;2023-03-03T01:27:17;41.73;;;24.60;;
68921;SDS011;55959;51.244;5.724;2023-03-03T01:29:42;36.33;;;23.40;;
68921;SDS011;55959;51.244;5.724;2023-03-03T01:32:08;41.90;;;26.57;;
68921;SDS011;55959;51.244;5.724;2023-03-03T01:34:34;41.43;;;26.23;;
68921;SDS011;55959;51.244;5.724;2023-03-03T01:37:00;44.40;;;25.57;;
68921;SDS011;55959;51.244;5.724;2023-03-03T01:39:25;43.23;;;26.73;;
68921;SDS011;55959;51.244;5.724;2023-03-03T01:41:51;40.97;;;24.10;;
68921;SDS011;55959;51.244;5.724;2023-03-03T01:44:17;34.90;;;21.70;;
68921;SDS011;55959;51.244;5.724;2023-03-03T01:47:02;36.53;;;22.33;;
68921;SDS011;55959;51.244;5.724;2023-03-03T01:52:30;39.17;;;24.20;;
68921;SDS011;55959;51.244;5.724;2023-03-03T01:55:02;39.17;;;24.60;;
68921;SDS011;55959;51.244;5.724;2023-03-03T01:57:45;42.10;;;24.83;;
68921;SDS011;55959;51.244;5.724;2023-03-03T02:00:18;40.80;;;23.57;;
68921;SDS011;55959;51.244;5.724;2023-03-03T02:02:44;40.90;;;25.17;;
68921;SDS011;55959;51.244;5.724;2023-03-03T02:05:11;37.90;;;22.47;;
68921;SDS011;55959;51.244;5.724;2023-03-03T02:07:38;32.47;;;19.47;;
68921;SDS011;55959;51.244;5.724;2023-03-03T02:10:05;35.17;;;21.80;;
68921;SDS011;55959;51.244;5.724;2023-03-03T02:12:48;40.30;;;23.07;;
68921;SDS011;55959;51.244;5.724;2023-03-03T02:15:25;41.83;;;23.07;;
68921;SDS011;55959;51.244;5.724;2023-03-03T02:18:11;40.60;;;23.13;;
68921;SDS011;55959;51.244;5.724;2023-03-03T02:23:52;38.30;;;22.30;;
68921;SDS011;55959;51.244;5.724;2023-03-03T02:26:59;37.03;;;19.47;;
68921;SDS011;55959;51.244;5.724;2023-03-03T02:29:25;34.23;;;19.30;;
68921;SDS011;55959;51.244;5.724;2023-03-03T02:31:51;37.83;;;21.47;;
68921;SDS011;55959;51.244;5.724;2023-03-03T02:34:16;33.50;;;18.73;;
68921;SDS011;55959;51.244;5.724;2023-03-03T02:36:43;31.30;;;17.27;;
68921;SDS011;55959;51.244;5.724;2023-03-03T02:44:53;38.17;;;20.90;;
68921;SDS011;55959;51.244;5.724;2023-03-03T02:47:20;31.27;;;17.17;;
68921;SDS011;55959;51.244;5.724;2023-03-03T02:49:45;34.93;;;20.17;;
68921;SDS011;55959;51.244;5.724;2023-03-03T02:52:11;37.27;;;20.60;;
68921;SDS011;55959;51.244;5.724;2023-03-03T02:54:38;34.43;;;18.60;;
68921;SDS011;55959;51.244;5.724;2023-03-03T02:57:04;38.93;;;20.90;;
68921;SDS011;55959;51.244;5.724;2023-03-03T02:59:31;36.60;;;19.97;;
68921;SDS011;55959;51.244;5.724;2023-03-03T03:01:56;39.00;;;20.77;;
68921;SDS011;55959;51.244;5.724;2023-03-03T03:04:24;33.60;;;19.33;;
68921;SDS011;55959;51.244;5.724;2023-03-03T03:06:51;33.53;;;19.00;;
68921;SDS011;55959;51.244;5.724;2023-03-03T03:09:19;31.00;;;17.40;;
68921;SDS011;55959;51.244;5.724;2023-03-03T03:11:46;39.77;;;21.03;;
68921;SDS011;55959;51.244;5.724;2023-03-03T03:14:13;35.93;;;19.73;;
68921;SDS011;55959;51.244;5.724;2023-03-03T03:16:39;33.47;;;17.60;;
68921;SDS011;55959;51.244;5.724;2023-03-03T03:19:05;35.40;;;18.30;;
68921;SDS011;55959;51.244;5.724;2023-03-03T03:21:32;35.70;;;19.90;;
68921;SDS011;55959;51.244;5.724;2023-03-03T03:23:58;37.83;;;19.73;;
68921;SDS011;55959;51.244;5.724;2023-03-03T03:26:25;34.63;;;18.20;;
68921;SDS011;55959;51.244;5.724;2023-03-03T03:28:51;31.57;;;18.33;;
68921;SDS011;55959;51.244;5.724;2023-03-03T03:31:17;38.17;;;19.70;;
68921;SDS011;55959;51.244;5.724;2023-03-03T03:33:45;38.83;;;18.87;;
68921;SDS011;55959;51.244;5.724;2023-03-03T03:36:11;30.33;;;17.17;;
68921;SDS011;55959;51.244;5.724;2023-03-03T03:38:37;37.20;;;19.60;;
68921;SDS011;55959;51.244;5.724;2023-03-03T03:41:03;34.57;;;18.43;;
68921;SDS011;55959;51.244;5.724;2023-03-03T03:43:31;31.90;;;17.20;;
68921;SDS011;55959;51.244;5.724;2023-03-03T03:45:57;32.73;;;17.47;;
68921;SDS011;55959;51.244;5.724;2023-03-03T03:48:23;32.70;;;17.20;;
68921;SDS011;55959;51.244;5.724;2023-03-03T03:50:49;29.23;;;16.63;;
68921;SDS011;55959;51.244;5.724;2023-03-03T03:53:15;34.80;;;18.80;;
68921;SDS011;55959;51.244;5.724;2023-03-03T03:55:42;36.00;;;18.37;;
68921;SDS011;55959;51.244;5.724;2023-03-03T03:58:12;41.47;;;20.73;;
68921;SDS011;55959;51.244;5.724;2023-03-03T04:00:40;41.33;;;21.40;;
68921;SDS011;55959;51.244;5.724;2023-03-03T04:03:06;37.77;;;20.13;;
68921;SDS011;55959;51.244;5.724;2023-03-03T04:05:32;35.83;;;20.00;;
68921;SDS011;55959;51.244;5.724;2023-03-03T04:07:58;43.03;;;22.57;;
68921;SDS011;55959;51.244;5.724;2023-03-03T04:10:24;39.37;;;21.47;;
68921;SDS011;55959;51.244;5.724;2023-03-03T04:12:50;38.57;;;20.40;;
68921;SDS011;55959;51.244;5.724;2023-03-03T04:15:15;39.07;;;20.37;;
68921;SDS011;55959;51.244;5.724;2023-03-03T04:17:41;40.97;;;21.67;;
68921;SDS011;55959;51.244;5.724;2023-03-03T04:20:07;35.83;;;19.47;;
68921;SDS011;55959;51.244;5.724;2023-03-03T04:22:36;36.70;;;19.13;;
68921;SDS011;55959;51.244;5.724;2023-03-03T04:25:03;30.87;;;16.13;;
68921;SDS011;55959;51.244;5.724;2023-03-03T04:27:33;32.90;;;17.37;;
68921;SDS011;55959;51.244;5.724;2023-03-03T04:30:01;29.63;;;16.80;;
68921;SDS011;55959;51.244;5.724;2023-03-03T04:32:28;27.97;;;17.77;;
68921;SDS011;55959;51.244;5.724;2023-03-03T04:34:54;29.20;;;16.63;;
68921;SDS011;55959;51.244;5.724;2023-03-03T04:37:20;34.47;;;18.97;;
68921;SDS011;55959;51.244;5.724;2023-03-03T04:39:46;32.07;;;19.20;;
68921;SDS011;55959;51.244;5.724;2023-03-03T04:42:13;30.90;;;17.90;;
68921;SDS011;55959;51.244;5.724;2023-03-03T04:44:39;30.37;;;17.23;;
68921;SDS011;55959;51.244;5.724;2023-03-03T04:47:05;32.87;;;18.87;;
68921;SDS011;55959;51.244;5.724;2023-03-03T04:49:30;38.77;;;21.73;;
68921;SDS011;55959;51.244;5.724;2023-03-03T04:51:57;36.40;;;19.27;;
68921;SDS011;55959;51.244;5.724;2023-03-03T04:54:23;32.37;;;18.37;;
68921;SDS011;55959;51.244;5.724;2023-03-03T04:56:48;28.63;;;17.00;;
68921;SDS011;55959;51.244;5.724;2023-03-03T04:59:15;28.50;;;16.20;;
68921;SDS011;55959;51.244;5.724;2023-03-03T05:01:41;25.17;;;15.17;;
68921;SDS011;55959;51.244;5.724;2023-03-03T05:04:06;27.83;;;15.97;;
68921;SDS011;55959;51.244;5.724;2023-03-03T05:06:32;30.67;;;16.90;;
68921;SDS011;55959;51.244;5.724;2023-03-03T05:08:58;28.37;;;15.80;;
68921;SDS011;55959;51.244;5.724;2023-03-03T05:11:24;23.40;;;15.10;;
68921;SDS011;55959;51.244;5.724;2023-03-03T05:13:49;37.40;;;20.67;;
68921;SDS011;55959;51.244;5.724;2023-03-03T05:16:15;33.37;;;18.60;;
68921;SDS011;55959;51.244;5.724;2023-03-03T05:18:41;34.07;;;18.93;;
68921;SDS011;55959;51.244;5.724;2023-03-03T05:21:07;36.23;;;20.30;;
68921;SDS011;55959;51.244;5.724;2023-03-03T05:23:33;35.50;;;19.90;;
68921;SDS011;55959;51.244;5.724;2023-03-03T05:25:58;31.30;;;17.90;;
68921;SDS011;55959;51.244;5.724;2023-03-03T05:28:24;30.70;;;17.60;;
68921;SDS011;55959;51.244;5.724;2023-03-03T05:30:50;34.67;;;20.80;;
68921;SDS011;55959;51.244;5.724;2023-03-03T05:33:17;33.50;;;19.73;;
68921;SDS011;55959;51.244;5.724;2023-03-03T05:35:42;32.60;;;19.63;;
68921;SDS011;55959;51.244;5.724;2023-03-03T05:38:08;32.17;;;17.53;;
68921;SDS011;55959;51.244;5.724;2023-03-03T05:40:34;31.57;;;17.53;;
68921;SDS011;55959;51.244;5.724;2023-03-03T05:43:01;36.37;;;20.70;;
68921;SDS011;55959;51.244;5.724;2023-03-03T05:45:27;27.50;;;16.90;;
68921;SDS011;55959;51.244;5.724;2023-03-03T05:47:53;29.60;;;16.37;;
68921;SDS011;55959;51.244;5.724;2023-03-03T05:50:19;27.77;;;17.47;;
68921;SDS011;55959;51.244;5.724;2023-03-03T05:52:50;28.07;;;17.57;;
68921;SDS011;55959;51.244;5.724;2023-03-03T05:55:17;28.07;;;17.77;;
68921;SDS011;55959;51.244;5.724;2023-03-03T05:57:44;27.80;;;16.93;;
68921;SDS011;55959;51.244;5.724;2023-03-03T06:00:10;25.17;;;15.47;;
68921;SDS011;55959;51.244;5.724;2023-03-03T06:02:38;26.40;;;15.97;;
68921;SDS011;55959;51.244;5.724;2023-03-03T06:05:04;23.53;;;15.27;;
68921;SDS011;55959;51.244;5.724;2023-03-03T06:07:30;26.07;;;15.93;;
68921;SDS011;55959;51.244;5.724;2023-03-03T06:09:56;28.10;;;17.73;;
68921;SDS011;55959;51.244;5.724;2023-03-03T06:12:22;22.67;;;15.40;;
68921;SDS011;55959;51.244;5.724;2023-03-03T06:14:47;23.27;;;16.23;;
68921;SDS011;55959;51.244;5.724;2023-03-03T06:17:13;24.80;;;15.37;;
68921;SDS011;55959;51.244;5.724;2023-03-03T06:19:39;23.47;;;15.60;;
68921;SDS011;55959;51.244;5.724;2023-03-03T06:22:05;24.47;;;16.87;;
68921;SDS011;55959;51.244;5.724;2023-03-03T06:24:32;24.00;;;15.37;;
68921;SDS011;55959;51.244;5.724;2023-03-03T06:26:58;21.47;;;15.10;;
68921;SDS011;55959;51.244;5.724;2023-03-03T06:29:25;25.00;;;15.80;;
68921;SDS011;55959;51.244;5.724;2023-03-03T06:31:51;25.03;;;15.97;;
68921;SDS011;55959;51.244;5.724;2023-03-03T06:34:17;23.87;;;15.63;;
68921;SDS011;55959;51.244;5.724;2023-03-03T06:36:43;20.80;;;14.13;;
68921;SDS011;55959;51.244;5.724;2023-03-03T06:39:09;23.43;;;15.33;;
68921;SDS011;55959;51.244;5.724;2023-03-03T06:41:35;26.07;;;16.87;;
68921;SDS011;55959;51.244;5.724;2023-03-03T06:44:01;25.57;;;17.10;;
68921;SDS011;55959;51.244;5.724;2023-03-03T06:46:27;23.23;;;15.40;;
68921;SDS011;55959;51.244;5.724;2023-03-03T06:48:53;28.13;;;19.43;;
68921;SDS011;55959;51.244;5.724;2023-03-03T06:51:21;35.67;;;21.30;;
68921;SDS011;55959;51.244;5.724;2023-03-03T06:53:54;28.40;;;19.60;;
68921;SDS011;55959;51.244;5.724;2023-03-03T06:56:25;30.37;;;20.07;;
68921;SDS011;55959;51.244;5.724;2023-03-03T06:58:55;26.63;;;18.40;;
68921;SDS011;55959;51.244;5.724;2023-03-03T07:01:23;25.73;;;18.23;;
68921;SDS011;55959;51.244;5.724;2023-03-03T07:03:49;26.70;;;18.13;;
68921;SDS011;55959;51.244;5.724;2023-03-03T07:06:24;25.90;;;16.97;;
68921;SDS011;55959;51.244;5.724;2023-03-03T07:08:52;25.00;;;17.60;;
68921;SDS011;55959;51.244;5.724;2023-03-03T07:11:22;24.03;;;17.70;;
68921;SDS011;55959;51.244;5.724;2023-03-03T07:13:49;21.40;;;15.40;;
68921;SDS011;55959;51.244;5.724;2023-03-03T07:16:23;24.50;;;17.30;;
68921;SDS011;55959;51.244;5.724;2023-03-03T07:18:52;22.23;;;15.53;;
68921;SDS011;55959;51.244;5.724;2023-03-03T07:21:35;25.97;;;17.13;;
68921;SDS011;55959;51.244;5.724;2023-03-03T07:24:24;28.13;;;18.87;;
68921;SDS011;55959;51.244;5.724;2023-03-03T07:26:54;25.80;;;18.07;;
68921;SDS011;55959;51.244;5.724;2023-03-03T07:29:28;28.40;;;19.43;;
68921;SDS011;55959;51.244;5.724;2023-03-03T07:31:57;31.23;;;18.33;;
68921;SDS011;55959;51.244;5.724;2023-03-03T07:34:45;25.43;;;14.93;;
68921;SDS011;55959;51.244;5.724;2023-03-03T07:37:26;22.53;;;14.93;;
68921;SDS011;55959;51.244;5.724;2023-03-03T07:39:56;24.63;;;16.43;;
68921;SDS011;55959;51.244;5.724;2023-03-03T07:42:23;28.33;;;17.27;;
68921;SDS011;55959;51.244;5.724;2023-03-03T07:45:19;26.43;;;17.97;;
68921;SDS011;55959;51.244;5.724;2023-03-03T07:47:46;25.07;;;16.67;;
68921;SDS011;55959;51.244;5.724;2023-03-03T07:50:22;27.43;;;18.37;;
68921;SDS011;55959;51.244;5.724;2023-03-03T07:52:53;26.30;;;17.00;;
68921;SDS011;55959;51.244;5.724;2023-03-03T08:03:06;24.93;;;17.13;;
68921;SDS011;55959;51.244;5.724;2023-03-03T08:05:45;29.80;;;18.97;;
68921;SDS011;55959;51.244;5.724;2023-03-03T08:11:01;27.33;;;17.20;;
68921;SDS011;55959;51.244;5.724;2023-03-03T08:13:33;28.60;;;19.23;;
68921;SDS011;55959;51.244;5.724;2023-03-03T08:21:12;27.10;;;18.30;;
68921;SDS011;55959;51.244;5.724;2023-03-03T08:23:41;25.83;;;16.83;;
68921;SDS011;55959;51.244;5.724;2023-03-03T08:26:08;23.90;;;14.90;;
68921;SDS011;55959;51.244;5.724;2023-03-03T08:28:36;28.40;;;18.23;;
68921;SDS011;55959;51.244;5.724;2023-03-03T08:31:02;27.23;;;17.57;;
68921;SDS011;55959;51.244;5.724;2023-03-03T08:33:28;25.73;;;16.57;;
68921;SDS011;55959;51.244;5.724;2023-03-03T08:35:54;22.87;;;15.03;;
68921;SDS011;55959;51.244;5.724;2023-03-03T08:38:20;27.13;;;16.37;;
68921;SDS011;55959;51.244;5.724;2023-03-03T08:40:46;24.47;;;16.93;;
68921;SDS011;55959;51.244;5.724;2023-03-03T08:43:13;27.23;;;18.10;;
68921;SDS011;55959;51.244;5.724;2023-03-03T08:45:45;23.63;;;14.70;;
68921;SDS011;55959;51.244;5.724;2023-03-03T08:48:13;24.47;;;15.67;;
68921;SDS011;55959;51.244;5.724;2023-03-03T08:50:40;23.60;;;14.83;;
68921;SDS011;55959;51.244;5.724;2023-03-03T08:53:06;25.03;;;16.10;;
68921;SDS011;55959;51.244;5.724;2023-03-03T08:55:33;25.23;;;16.37;;
68921;SDS011;55959;51.244;5.724;2023-03-03T08:57:59;25.77;;;17.50;;
68921;SDS011;55959;51.244;5.724;2023-03-03T09:00:31;26.73;;;17.27;;
68921;SDS011;55959;51.244;5.724;2023-03-03T09:02:57;28.87;;;17.10;;
68921;SDS011;55959;51.244;5.724;2023-03-03T09:05:23;28.03;;;16.93;;
68921;SDS011;55959;51.244;5.724;2023-03-03T09:07:50;28.23;;;17.37;;
68921;SDS011;55959;51.244;5.724;2023-03-03T09:10:19;26.27;;;17.00;;
68921;SDS011;55959;51.244;5.724;2023-03-03T09:12:52;24.37;;;16.40;;
68921;SDS011;55959;51.244;5.724;2023-03-03T09:15:32;27.23;;;15.83;;
68921;SDS011;55959;51.244;5.724;2023-03-03T09:20:44;23.93;;;14.60;;
68921;SDS011;55959;51.244;5.724;2023-03-03T09:26:13;27.97;;;17.27;;
68921;SDS011;55959;51.244;5.724;2023-03-03T09:28:51;28.23;;;17.33;;
68921;SDS011;55959;51.244;5.724;2023-03-03T09:34:13;24.70;;;15.73;;
68921;SDS011;55959;51.244;5.724;2023-03-03T09:40:28;26.27;;;17.07;;
68921;SDS011;55959;51.244;5.724;2023-03-03T09:43:20;26.67;;;16.97;;
68921;SDS011;55959;51.244;5.724;2023-03-03T09:46:09;27.33;;;16.07;;
68921;SDS011;55959;51.244;5.724;2023-03-03T09:48:47;26.20;;;15.20;;
68921;SDS011;55959;51.244;5.724;2023-03-03T09:54:39;20.03;;;12.70;;
68921;SDS011;55959;51.244;5.724;2023-03-03T09:57:45;24.50;;;14.37;;
68921;SDS011;55959;51.244;5.724;2023-03-03T10:00:30;21.07;;;13.50;;
68921;SDS011;55959;51.244;5.724;2023-03-03T10:06:18;26.43;;;16.57;;
68921;SDS011;55959;51.244;5.724;2023-03-03T10:17:49;28.50;;;17.83;;
68921;SDS011;55959;51.244;5.724;2023-03-03T10:26:36;22.97;;;15.70;;
68921;SDS011;55959;51.244;5.724;2023-03-03T10:29:34;26.27;;;17.33;;
68921;SDS011;55959;51.244;5.724;2023-03-03T10:50:32;22.03;;;14.70;;
68921;SDS011;55959;51.244;5.724;2023-03-03T10:53:28;23.53;;;14.53;;
68921;SDS011;55959;51.244;5.724;2023-03-03T11:02:22;21.63;;;14.17;;
68921;SDS011;55959;51.244;5.724;2023-03-03T11:05:05;24.80;;;15.63;;
68921;SDS011;55959;51.244;5.724;2023-03-03T11:08:08;21.97;;;14.23;;
68921;SDS011;55959;51.244;5.724;2023-03-03T11:18:33;22.63;;;15.73;;
68921;SDS011;55959;51.244;5.724;2023-03-03T11:24:01;21.43;;;13.27;;
68921;SDS011;55959;51.244;5.724;2023-03-03T11:35:21;20.10;;;13.93;;
68921;SDS011;55959;51.244;5.724;2023-03-03T11:38:17;21.47;;;13.77;;
68921;SDS011;55959;51.244;5.724;2023-03-03T11:41:07;19.07;;;12.40;;
68921;SDS011;55959;51.244;5.724;2023-03-03T11:46:37;22.93;;;14.63;;
68921;SDS011;55959;51.244;5.724;2023-03-03T11:49:21;18.80;;;14.10;;
68921;SDS011;55959;51.244;5.724;2023-03-03T12:02:54;21.50;;;14.47;;
68921;SDS011;55959;51.244;5.724;2023-03-03T12:05:53;21.87;;;13.67;;
68921;SDS011;55959;51.244;5.724;2023-03-03T12:14:31;17.83;;;12.40;;
68921;SDS011;55959;51.244;5.724;2023-03-03T12:20:37;17.43;;;11.70;;
68921;SDS011;55959;51.244;5.724;2023-03-03T12:23:28;17.50;;;12.30;;
68921;SDS011;55959;51.244;5.724;2023-03-03T12:26:24;19.30;;;13.63;;
68921;SDS011;55959;51.244;5.724;2023-03-03T12:35:03;20.03;;;14.30;;
68921;SDS011;55959;51.244;5.724;2023-03-03T12:37:53;18.00;;;14.23;;
68921;SDS011;55959;51.244;5.724;2023-03-03T12:40:45;14.57;;;10.50;;
68921;SDS011;55959;51.244;5.724;2023-03-03T12:49:52;17.13;;;11.50;;
68921;SDS011;55959;51.244;5.724;2023-03-03T12:55:42;18.07;;;12.97;;
68921;SDS011;55959;51.244;5.724;2023-03-03T13:09:54;17.10;;;12.87;;
68921;SDS011;55959;51.244;5.724;2023-03-03T13:15:34;19.27;;;13.57;;
68921;SDS011;55959;51.244;5.724;2023-03-03T13:21:20;18.67;;;13.77;;
68921;SDS011;55959;51.244;5.724;2023-03-03T13:27:05;22.53;;;15.37;;
68921;SDS011;55959;51.244;5.724;2023-03-03T13:32:22;21.50;;;15.13;;
68921;SDS011;55959;51.244;5.724;2023-03-03T13:38:04;19.50;;;13.73;;
68921;SDS011;55959;51.244;5.724;2023-03-03T13:43:16;17.27;;;12.63;;
68921;SDS011;55959;51.244;5.724;2023-03-03T13:45:52;18.07;;;12.80;;
68921;SDS011;55959;51.244;5.724;2023-03-03T13:51:57;16.67;;;12.13;;
68921;SDS011;55959;51.244;5.724;2023-03-03T13:54:41;21.07;;;14.80;;
68921;SDS011;55959;51.244;5.724;2023-03-03T13:57:59;21.30;;;14.87;;
68921;SDS011;55959;51.244;5.724;2023-03-03T14:00:57;18.97;;;13.60;;
68921;SDS011;55959;51.244;5.724;2023-03-03T14:06:53;16.83;;;11.90;;
68921;SDS011;55959;51.244;5.724;2023-03-03T14:12:09;16.07;;;11.40;;
68921;SDS011;55959;51.244;5.724;2023-03-03T14:15:26;21.00;;;13.90;;
68921;SDS011;55959;51.244;5.724;2023-03-03T14:20:53;14.00;;;10.43;;
68921;SDS011;55959;51.244;5.724;2023-03-03T14:23:40;16.30;;;11.83;;
68921;SDS011;55959;51.244;5.724;2023-03-03T14:26:28;13.17;;;10.57;;
68921;SDS011;55959;51.244;5.724;2023-03-03T14:29:03;15.50;;;11.77;;
68921;SDS011;55959;51.244;5.724;2023-03-03T14:31:54;15.77;;;11.40;;
68921;SDS011;55959;51.244;5.724;2023-03-03T14:37:23;15.77;;;11.10;;
68921;SDS011;55959;51.244;5.724;2023-03-03T14:40:18;13.80;;;10.60;;
68921;SDS011;55959;51.244;5.724;2023-03-03T14:48:10;17.20;;;12.93;;
68921;SDS011;55959;51.244;5.724;2023-03-03T14:50:55;18.13;;;13.50;;
68921;SDS011;55959;51.244;5.724;2023-03-03T14:53:37;14.17;;;11.23;;
68921;SDS011;55959;51.244;5.724;2023-03-03T14:56:14;17.33;;;11.37;;
68921;SDS011;55959;51.244;5.724;2023-03-03T14:58:49;13.40;;;9.73;;
68921;SDS011;55959;51.244;5.724;2023-03-03T15:01:31;14.20;;;10.73;;
68921;SDS011;55959;51.244;5.724;2023-03-03T15:04:03;11.20;;;8.93;;
68921;SDS011;55959;51.244;5.724;2023-03-03T15:06:55;14.40;;;9.90;;
68921;SDS011;55959;51.244;5.724;2023-03-03T15:15:06;10.33;;;8.23;;
68921;SDS011;55959;51.244;5.724;2023-03-03T15:17:52;12.27;;;9.33;;
68921;SDS011;55959;51.244;5.724;2023-03-03T15:26:27;10.80;;;9.03;;
68921;SDS011;55959;51.244;5.724;2023-03-03T15:29:22;13.40;;;9.03;;
68921;SDS011;55959;51.244;5.724;2023-03-03T15:35:35;11.63;;;8.83;;
68921;SDS011;55959;51.244;5.724;2023-03-03T15:44:01;11.67;;;8.17;;
68921;SDS011;55959;51.244;5.724;2023-03-03T15:55:05;12.57;;;9.13;;
68921;SDS011;55959;51.244;5.724;2023-03-03T15:57:47;10.00;;;7.60;;
68921;SDS011;55959;51.244;5.724;2023-03-03T16:00:42;11.07;;;8.30;;
68921;SDS011;55959;51.244;5.724;2023-03-03T16:03:19;13.80;;;9.97;;
68921;SDS011;55959;51.244;5.724;2023-03-03T16:05:52;11.20;;;8.53;;
68921;SDS011;55959;51.244;5.724;2023-03-03T16:13:55;13.40;;;9.77;;
68921;SDS011;55959;51.244;5.724;2023-03-03T16:16:50;12.17;;;9.10;;
68921;SDS011;55959;51.244;5.724;2023-03-03T16:19:40;10.30;;;8.07;;
68921;SDS011;55959;51.244;5.724;2023-03-03T16:22:37;10.30;;;8.23;;
68921;SDS011;55959;51.244;5.724;2023-03-03T16:31:13;12.97;;;9.63;;
68921;SDS011;55959;51.244;5.724;2023-03-03T16:39:39;11.13;;;8.20;;
68921;SDS011;55959;51.244;5.724;2023-03-03T16:42:33;13.23;;;9.93;;
68921;SDS011;55959;51.244;5.724;2023-03-03T16:45:03;11.37;;;8.57;;
68921;SDS011;55959;51.244;5.724;2023-03-03T16:51:13;12.83;;;9.17;;
68921;SDS011;55959;51.244;5.724;2023-03-03T16:53:45;11.93;;;8.10;;
68921;SDS011;55959;51.244;5.724;2023-03-03T16:56:23;10.57;;;8.60;;
68921;SDS011;55959;51.244;5.724;2023-03-03T17:07:17;11.27;;;8.70;;
68921;SDS011;55959;51.244;5.724;2023-03-03T17:10:15;11.40;;;9.20;;
68921;SDS011;55959;51.244;5.724;2023-03-03T17:16:13;15.33;;;11.23;;
68921;SDS011;55959;51.244;5.724;2023-03-03T17:25:22;14.03;;;11.33;;
68921;SDS011;55959;51.244;5.724;2023-03-03T17:28:19;13.67;;;10.73;;
68921;SDS011;55959;51.244;5.724;2023-03-03T17:34:31;14.50;;;10.40;;
68921;SDS011;55959;51.244;5.724;2023-03-03T17:38:04;14.50;;;10.53;;
68921;SDS011;55959;51.244;5.724;2023-03-03T17:41:00;18.07;;;11.60;;
68921;SDS011;55959;51.244;5.724;2023-03-03T17:46:56;14.33;;;10.43;;
68921;SDS011;55959;51.244;5.724;2023-03-03T17:52:20;13.80;;;10.60;;
68921;SDS011;55959;51.244;5.724;2023-03-03T17:58:42;13.93;;;10.07;;
68921;SDS011;55959;51.244;5.724;2023-03-03T18:18:43;14.37;;;11.77;;
68921;SDS011;55959;51.244;5.724;2023-03-03T18:22:01;15.70;;;10.93;;
68921;SDS011;55959;51.244;5.724;2023-03-03T18:35:34;14.97;;;10.77;;
68921;SDS011;55959;51.244;5.724;2023-03-03T18:46:09;14.13;;;11.50;;
68921;SDS011;55959;51.244;5.724;2023-03-03T18:49:08;13.10;;;10.60;;
68921;SDS011;55959;51.244;5.724;2023-03-03T18:57:21;14.93;;;11.27;;
68921;SDS011;55959;51.244;5.724;2023-03-03T19:04:41;15.03;;;11.13;;
68921;SDS011;55959;51.244;5.724;2023-03-03T19:15:57;18.60;;;12.87;;
68921;SDS011;55959;51.244;5.724;2023-03-03T19:18:27;17.47;;;12.00;;
68921;SDS011;55959;51.244;5.724;2023-03-03T19:21:21;20.30;;;13.50;;
68921;SDS011;55959;51.244;5.724;2023-03-03T19:32:10;8.10;;;6.17;;
68921;SDS011;55959;51.244;5.724;2023-03-03T19:41:35;4.17;;;3.37;;
68921;SDS011;55959;51.244;5.724;2023-03-03T19:44:23;3.33;;;2.00;;
68921;SDS011;55959;51.244;5.724;2023-03-03T19:47:31;2.17;;;1.77;;
68921;SDS011;55959;51.244;5.724;2023-03-03T19:56:14;2.20;;;1.50;;
68921;SDS011;55959;51.244;5.724;2023-03-03T20:04:35;2.73;;;1.40;;
68921;SDS011;55959;51.244;5.724;2023-03-03T20:13:02;1.30;;;1.20;;
68921;SDS011;55959;51.244;5.724;2023-03-03T20:16:35;3.07;;;1.40;;
68921;SDS011;55959;51.244;5.724;2023-03-03T20:22:12;3.40;;;2.10;;
68921;SDS011;55959;51.244;5.724;2023-03-03T20:31:26;1.93;;;1.60;;
68921;SDS011;55959;51.244;5.724;2023-03-03T20:34:25;2.17;;;1.30;;
68921;SDS011;55959;51.244;5.724;2023-03-03T20:51:05;2.07;;;1.40;;
68921;SDS011;55959;51.244;5.724;2023-03-03T20:56:35;2.37;;;1.37;;
68921;SDS011;55959;51.244;5.724;2023-03-03T21:05:21;2.50;;;1.30;;
68921;SDS011;55959;51.244;5.724;2023-03-03T21:10:31;3.17;;;1.53;;
68921;SDS011;55959;51.244;5.724;2023-03-03T21:16:05;2.90;;;1.50;;
68921;SDS011;55959;51.244;5.724;2023-03-03T21:21:38;2.27;;;1.50;;
68921;SDS011;55959;51.244;5.724;2023-03-03T21:24:07;2.70;;;1.37;;
68921;SDS011;55959;51.244;5.724;2023-03-03T21:27:00;4.33;;;1.77;;
68921;SDS011;55959;51.244;5.724;2023-03-03T21:29:30;4.23;;;1.63;;
68921;SDS011;55959;51.244;5.724;2023-03-03T21:31:59;3.17;;;1.60;;
68921;SDS011;55959;51.244;5.724;2023-03-03T21:34:28;4.57;;;1.77;;
68921;SDS011;55959;51.244;5.724;2023-03-03T21:36:58;2.93;;;1.77;;
68921;SDS011;55959;51.244;5.724;2023-03-03T21:39:36;3.83;;;1.50;;
68921;SDS011;55959;51.244;5.724;2023-03-03T21:42:16;1.90;;;1.70;;
68921;SDS011;55959;51.244;5.724;2023-03-03T21:47:15;3.43;;;1.93;;
68921;SDS011;55959;51.244;5.724;2023-03-03T21:49:50;2.97;;;1.63;;
68921;SDS011;55959;51.244;5.724;2023-03-03T21:52:17;4.03;;;1.50;;
68921;SDS011;55959;51.244;5.724;2023-03-03T21:54:45;5.93;;;1.97;;
68921;SDS011;55959;51.244;5.724;2023-03-03T21:57:13;4.23;;;1.60;;
68921;SDS011;55959;51.244;5.724;2023-03-03T21:59:39;3.20;;;1.80;;
68921;SDS011;55959;51.244;5.724;2023-03-03T22:02:05;5.20;;;2.00;;
68921;SDS011;55959;51.244;5.724;2023-03-03T22:04:32;2.30;;;1.40;;